Time;durP1;ratioP1;P1;durP2;ratioP2;P2;SDS_P1;SDS_P2;PMS_P1;PMS_P2;Temp;Humidity;BMP_temperature;BMP_pressure;BME280_temperature;BME280_humidity;BME280_pressure;Samples;Min_cycle;Max_cycle;Signal;HPM_P1;HPM_P2
2023/09/17 00:02:15;;;;;;;;;7.75;7.75;;;;;23.37;69.28;100716.59;6215968;22;45614;-65
2023/09/17 00:04:41;;;;;;;;;8.50;8.50;;;;;23.19;69.39;100694.53;6215418;22;45331;-65
2023/09/17 00:07:06;;;;;;;;;9.25;8.75;;;;;23.44;69.04;100741.44;6213635;22;47404;-65
2023/09/17 00:09:32;;;;;;;;;6.00;5.25;;;;;23.52;69.27;100751.66;6215884;22;45244;-65
2023/09/17 00:11:57;;;;;;;;;8.00;8.00;;;;;23.28;69.58;100712.78;6215639;22;45841;-65
2023/09/17 00:14:23;;;;;;;;;6.50;6.50;;;;;23.23;68.96;100706.88;6215318;22;45307;-65
2023/09/17 00:16:49;;;;;;;;;8.00;7.75;;;;;23.28;69.27;100723.66;6213238;22;47999;-65
2023/09/17 00:19:14;;;;;;;;;8.00;8.00;;;;;23.47;69.66;100749.31;6214277;22;45397;-65
2023/09/17 00:21:39;;;;;;;;;6.00;6.00;;;;;23.23;69.43;100708.75;6217229;22;45394;-65
2023/09/17 00:24:05;;;;;;;;;8.00;8.00;;;;;23.31;69.44;100720.69;6216057;22;45351;-65
2023/09/17 00:26:33;;;;;;;;;7.75;7.00;;;;;23.29;69.30;100710.94;6240107;22;47941;-65
2023/09/17 00:28:59;;;;;;;;;7.50;7.50;;;;;23.23;69.34;100706.00;6216924;22;45460;-65
2023/09/17 00:31:24;;;;;;;;;7.50;7.50;;;;;23.06;69.26;100678.38;6216997;22;45283;-65
2023/09/17 00:33:50;;;;;;;;;4.00;4.00;;;;;23.04;69.61;100680.34;6216279;22;45268;-65
2023/09/17 00:36:15;;;;;;;;;7.00;7.00;;;;;23.31;69.24;100734.31;6216754;22;45898;-65
2023/09/17 00:38:40;;;;;;;;;7.50;6.25;;;;;23.14;69.81;100707.69;6214594;22;45280;-65
2023/09/17 00:41:06;;;;;;;;;6.75;6.75;;;;;23.12;69.62;100712.38;6216605;22;45899;-65
2023/09/17 00:43:32;;;;;;;;;6.75;6.75;;;;;23.11;69.98;100702.50;6214307;22;45498;-65
2023/09/17 00:45:57;;;;;;;;;5.00;4.75;;;;;23.10;69.75;100715.25;6216265;22;45649;-65
2023/09/17 00:48:26;;;;;;;;;6.75;6.00;;;;;23.19;70.06;100729.94;6214392;22;45427;-65
2023/09/17 00:50:52;;;;;;;;;6.50;6.50;;;;;23.11;69.87;100716.09;6214869;22;45303;-65
2023/09/17 00:53:18;;;;;;;;;6.25;6.25;;;;;23.25;69.90;100740.28;6216291;22;45235;-65
2023/09/17 00:55:43;;;;;;;;;8.50;7.25;;;;;23.02;70.26;100692.34;6216712;22;46607;-65
2023/09/17 00:58:09;;;;;;;;;8.00;8.00;;;;;23.00;70.24;100692.47;6216303;22;45207;-65
2023/09/17 01:00:38;;;;;;;;;9.00;9.00;;;;;23.24;70.45;100744.00;6216616;22;45587;-65
2023/09/17 01:03:05;;;;;;;;;7.00;7.00;;;;;23.17;70.37;100736.47;6216385;22;45312;-65
2023/09/17 01:05:39;;;;;;;;;7.25;7.25;;;;;23.12;70.28;100729.59;6216815;22;45438;-65
2023/09/17 01:08:06;;;;;;;;;8.00;8.00;;;;;23.17;70.43;100737.38;6217134;22;45526;-65
2023/09/17 01:10:34;;;;;;;;;9.00;9.00;;;;;22.96;70.07;100710.06;6216772;22;45307;-65
2023/09/17 01:13:01;;;;;;;;;7.25;7.25;;;;;23.02;70.52;100717.72;6216037;22;45275;-65
2023/09/17 01:15:27;;;;;;;;;6.75;6.75;;;;;22.97;70.72;100714.53;6213718;22;47475;-64
2023/09/17 01:17:54;;;;;;;;;8.25;7.00;;;;;22.99;70.49;100717.09;6215819;22;45537;-65
2023/09/17 01:20:25;;;;;;;;;6.75;6.75;;;;;22.91;71.06;100705.03;6216632;22;45304;-65
2023/09/17 01:22:56;;;;;;;;;8.00;8.00;;;;;22.70;70.94;100660.59;6216045;22;45422;-65
2023/09/17 01:25:50;;;;;;;;;11.50;10.00;;;;;23.01;70.67;100724.16;6215804;22;45447;-65
2023/09/17 01:28:16;;;;;;;;;8.00;6.75;;;;;22.86;71.02;100699.09;6213777;22;45439;-65
2023/09/17 01:30:41;;;;;;;;;7.25;7.25;;;;;23.00;70.78;100725.13;6214463;22;45491;-65
2023/09/17 01:33:09;;;;;;;;;5.25;5.25;;;;;23.01;70.70;100728.75;6216422;22;45327;-65
2023/09/17 01:35:43;;;;;;;;;6.25;6.25;;;;;22.83;71.03;100693.91;6216460;22;46487;-64
2023/09/17 01:38:13;;;;;;;;;6.50;6.50;;;;;22.90;70.72;100706.03;6216543;22;45477;-65
2023/09/17 01:40:42;;;;;;;;;7.50;7.00;;;;;22.93;71.11;100715.78;6214509;22;45467;-65
2023/09/17 01:43:10;;;;;;;;;7.00;7.00;;;;;23.03;70.78;100738.50;6213129;22;45285;-65
2023/09/17 01:45:36;;;;;;;;;6.50;5.25;;;;;23.02;71.14;100738.63;6215399;22;45945;-65
2023/09/17 01:48:03;;;;;;;;;6.00;6.00;;;;;22.96;70.97;100728.28;6215331;22;45176;-65
2023/09/17 01:50:28;;;;;;;;;6.75;6.00;;;;;22.64;71.34;100675.59;6216798;22;45393;-65
2023/09/17 01:52:55;;;;;;;;;8.00;5.75;;;;;22.89;71.00;100717.91;6216347;22;45403;-65
2023/09/17 01:55:22;;;;;;;;;6.50;6.50;;;;;22.71;71.25;100689.53;6216225;22;46092;-65
2023/09/17 01:57:48;;;;;;;;;8.75;8.00;;;;;22.93;71.07;100730.25;6213550;22;45341;-65
2023/09/17 02:00:16;;;;;;;;;7.00;7.00;;;;;22.68;70.98;100682.47;6216409;22;45304;-65
2023/09/17 02:02:50;;;;;;;;;7.25;7.25;;;;;22.71;71.48;100687.66;6216471;22;45246;-65
2023/09/17 02:05:16;;;;;;;;;5.25;5.25;;;;;22.78;71.59;100704.34;6215582;22;45365;-65
2023/09/17 02:07:44;;;;;;;;;6.25;5.00;;;;;22.81;71.49;100714.09;6216016;22;45300;-64
2023/09/17 02:10:10;;;;;;;;;6.25;6.00;;;;;22.77;71.32;100702.63;6216362;22;45331;-65
2023/09/17 02:12:35;;;;;;;;;6.00;5.75;;;;;22.68;71.42;100687.06;6215912;22;45375;-65
2023/09/17 02:15:01;;;;;;;;;3.75;2.25;;;;;22.65;71.10;100677.28;6213995;22;47240;-65
2023/09/17 02:17:26;;;;;;;;;6.00;5.50;;;;;22.64;71.20;100682.88;6214334;22;45352;-65
2023/09/17 02:19:51;;;;;;;;;4.50;4.50;;;;;22.86;71.81;100725.47;6214622;22;45976;-65
2023/09/17 02:22:17;;;;;;;;;6.00;6.00;;;;;22.68;71.45;100697.94;6216329;22;45594;-65
2023/09/17 02:24:42;;;;;;;;;5.25;5.25;;;;;22.55;71.51;100666.34;6215930;22;45381;-65
2023/09/17 02:27:08;;;;;;;;;7.00;7.00;;;;;22.59;71.52;100680.53;6216040;22;45228;-65
2023/09/17 02:29:34;;;;;;;;;5.75;5.25;;;;;22.60;71.56;100675.97;6216349;22;45193;-65
2023/09/17 02:31:59;;;;;;;;;6.00;6.00;;;;;22.79;72.25;100697.91;6216240;22;45178;-65
2023/09/17 02:34:25;;;;;;;;;6.00;6.00;;;;;22.83;71.84;100704.81;6215635;22;45836;-64
2023/09/17 02:36:50;;;;;;;;;7.00;6.50;;;;;22.61;71.90;100669.53;6216072;22;45395;-65
2023/09/17 02:39:15;;;;;;;;;6.00;6.00;;;;;22.45;71.97;100650.91;6216419;22;45256;-65
2023/09/17 02:41:41;;;;;;;;;7.50;5.75;;;;;22.60;72.05;100684.97;6215967;22;45157;-65
2023/09/17 02:44:06;;;;;;;;;7.00;7.00;;;;;22.73;72.01;100710.16;6238781;22;47836;-65
2023/09/17 02:46:33;;;;;;;;;9.50;9.50;;;;;22.51;71.78;100666.72;6214178;22;45285;-65
2023/09/17 02:48:58;;;;;;;;;8.00;8.00;;;;;22.41;71.96;100661.19;6216393;22;45398;-65
2023/09/17 02:51:25;;;;;;;;;9.00;8.00;;;;;22.50;72.12;100682.19;6215580;22;54603;-65
2023/09/17 02:53:51;;;;;;;;;8.25;7.00;;;;;22.61;72.15;100702.19;6215960;22;45562;-65
2023/09/17 02:56:16;;;;;;;;;10.00;8.75;;;;;22.38;72.08;100670.44;6216231;22;45291;-65
2023/09/17 02:58:41;;;;;;;;;9.75;7.00;;;;;22.46;72.59;100680.69;6214111;22;45500;-65
2023/09/17 03:01:17;;;;;;;;;8.00;7.75;;;;;22.34;72.34;100660.84;6214185;22;45518;-65
2023/09/17 03:03:53;;;;;;;;;7.25;6.25;;;;;22.55;72.63;100690.81;6216014;22;45402;-64
2023/09/17 03:06:18;;;;;;;;;10.50;8.25;;;;;22.37;72.52;100655.16;6213604;22;45526;-65
2023/09/17 03:08:43;;;;;;;;;9.00;9.00;;;;;22.39;72.58;100671.34;6213397;22;45197;-65
2023/09/17 03:11:17;;;;;;;;;7.25;7.00;;;;;22.37;72.79;100663.31;6215690;22;45577;-65
2023/09/17 03:13:47;;;;;;;;;7.00;6.25;;;;;22.39;72.81;100671.34;6213282;22;48240;-65
2023/09/17 03:16:15;;;;;;;;;8.00;8.00;;;;;22.30;72.69;100647.63;6215970;22;45305;-65
2023/09/17 03:18:44;;;;;;;;;7.50;6.00;;;;;22.36;72.43;100660.72;6215227;22;45421;-65
2023/09/17 03:21:10;;;;;;;;;8.00;7.25;;;;;22.37;72.53;100654.28;6216112;22;45253;-65
2023/09/17 03:23:36;;;;;;;;;6.50;6.50;;;;;22.42;72.77;100668.38;6215513;22;45564;-65
2023/09/17 03:26:03;;;;;;;;;8.50;7.50;;;;;22.42;72.93;100660.22;6215721;22;45264;-65
2023/09/17 03:28:29;;;;;;;;;6.75;6.75;;;;;22.40;72.56;100673.03;6215997;22;45401;-65
2023/09/17 03:30:55;;;;;;;;;8.25;8.25;;;;;22.54;72.42;100690.94;6215816;22;45489;-65
2023/09/17 03:33:22;;;;;;;;;6.00;6.00;;;;;22.49;72.63;100679.59;6215786;22;45327;-65
2023/09/17 03:35:47;;;;;;;;;7.00;7.00;;;;;22.55;72.37;100689.94;6214194;22;45482;-65
2023/09/17 03:38:13;;;;;;;;;6.00;6.00;;;;;22.20;72.78;100633.88;6214073;22;45364;-65
2023/09/17 03:40:39;;;;;;;;;9.00;7.75;;;;;22.38;72.66;100661.44;6215998;22;45631;-65
2023/09/17 03:43:05;;;;;;;;;7.50;7.50;;;;;22.32;72.78;100651.94;6214784;22;45581;-65
2023/09/17 03:45:31;;;;;;;;;4.00;4.00;;;;;22.27;72.97;100650.56;6213553;22;45284;-65
2023/09/17 03:47:56;;;;;;;;;5.00;5.00;;;;;22.16;72.85;100627.84;6213892;22;45334;-65
2023/09/17 03:50:22;;;;;;;;;6.25;6.25;;;;;22.37;72.78;100668.75;6215905;22;45301;-65
2023/09/17 03:52:51;;;;;;;;;7.25;7.25;;;;;22.30;73.16;100655.78;6213499;22;47546;-65
2023/09/17 03:55:17;;;;;;;;;6.75;5.75;;;;;22.28;72.86;100652.28;6215168;22;45371;-64
2023/09/17 03:57:43;;;;;;;;;5.75;5.75;;;;;22.24;73.31;100648.97;6215637;22;45311;-65
2023/09/17 04:00:10;;;;;;;;;5.75;5.75;;;;;22.43;73.27;100691.84;6215480;22;45406;-65
2023/09/17 04:02:37;;;;;;;;;5.75;5.75;;;;;22.18;73.14;100650.31;6215494;22;45738;-65
2023/09/17 04:05:36;;;;;;;;;5.00;5.00;;;;;22.23;72.71;100654.53;6213687;22;45719;-65
2023/09/17 04:07:55;;;;;;;;;6.50;6.00;;;;;22.09;73.17;100640.22;6212302;22;45461;-65
2023/09/17 04:10:20;;;;;;;;;6.00;6.00;;;;;22.31;73.09;100662.94;6215545;22;45435;-65
2023/09/17 04:12:46;;;;;;;;;7.00;7.00;;;;;22.19;72.97;100649.34;6215073;22;45521;-64
2023/09/17 04:15:18;;;;;;;;;6.00;5.25;;;;;22.26;73.30;100659.72;6214595;22;45272;-65
2023/09/17 04:17:45;;;;;;;;;5.75;5.25;;;;;22.12;73.42;100642.69;6215494;22;45340;-65
2023/09/17 04:20:13;;;;;;;;;7.50;7.00;;;;;22.18;73.29;100655.75;6213414;22;45439;-65
2023/09/17 04:22:46;;;;;;;;;7.50;6.25;;;;;22.00;73.40;100625.56;6215207;22;45354;-65
2023/09/17 04:25:13;;;;;;;;;7.50;7.50;;;;;22.34;73.94;100689.91;6214994;22;45326;-65
2023/09/17 04:27:41;;;;;;;;;8.00;6.00;;;;;22.09;73.82;100661.97;6215661;22;45436;-65
2023/09/17 04:30:07;;;;;;;;;8.25;7.00;;;;;22.16;73.75;100673.22;6212417;22;45447;-65
2023/09/17 04:32:37;;;;;;;;;8.00;8.00;;;;;22.26;73.36;100681.47;6215235;22;45292;-65
2023/09/17 04:35:07;;;;;;;;;7.50;7.50;;;;;22.06;73.65;100639.63;6214445;22;45330;-65
2023/09/17 04:37:34;;;;;;;;;8.00;7.00;;;;;22.26;73.60;100666.00;6213361;22;45308;-65
2023/09/17 04:40:00;;;;;;;;;7.00;7.00;;;;;22.14;73.56;100654.31;6215081;22;45272;-65
2023/09/17 04:42:26;;;;;;;;;10.00;10.00;;;;;22.11;73.59;100654.53;6214037;22;45294;-65
2023/09/17 04:44:52;;;;;;;;;8.50;8.00;;;;;22.10;74.01;100643.81;6238315;22;45268;-65
2023/09/17 04:47:17;;;;;;;;;8.25;8.00;;;;;21.90;74.27;100608.28;6215477;22;45632;-65
2023/09/17 04:49:42;;;;;;;;;7.75;7.25;;;;;22.24;74.36;100670.72;6215287;22;45286;-65
2023/09/17 04:52:08;;;;;;;;;7.75;7.75;;;;;21.92;74.32;100625.31;6214811;22;46118;-65
2023/09/17 04:54:33;;;;;;;;;8.25;8.00;;;;;22.17;74.21;100683.97;6214924;22;45267;-65
2023/09/17 04:56:59;;;;;;;;;8.75;8.75;;;;;22.07;74.30;100666.69;6214910;22;45301;-65
2023/09/17 04:59:24;;;;;;;;;9.25;8.25;;;;;22.11;74.91;100683.59;6212561;22;45708;-65
2023/09/17 05:01:49;;;;;;;;;8.00;8.00;;;;;22.10;74.45;100680.03;6214527;22;45930;-65
2023/09/17 05:04:15;;;;;;;;;13.00;10.25;;;;;21.80;74.46;100648.94;6213262;22;45857;-65
2023/09/17 05:06:42;;;;;;;;;8.00;8.00;;;;;22.08;74.50;100679.25;6214518;22;45381;-65
2023/09/17 05:09:10;;;;;;;;;6.75;6.00;;;;;21.88;74.39;100655.56;6216648;22;45457;-65
2023/09/17 05:11:36;;;;;;;;;5.25;5.25;;;;;21.91;74.22;100663.47;6216113;22;45419;-65
2023/09/17 05:14:01;;;;;;;;;8.00;6.75;;;;;21.74;74.80;100635.81;6214395;22;45326;-65
2023/09/17 05:16:27;;;;;;;;;6.75;5.75;;;;;21.71;74.38;100630.63;6216625;22;45368;-65
2023/09/17 05:18:53;;;;;;;;;6.75;6.00;;;;;22.02;74.61;100683.34;6216711;22;45422;-65
2023/09/17 05:21:19;;;;;;;;;7.50;7.00;;;;;21.87;74.21;100653.84;6216457;22;45529;-65
2023/09/17 05:23:45;;;;;;;;;7.25;7.25;;;;;21.99;74.21;100669.16;6216183;22;45431;-65
2023/09/17 05:26:10;;;;;;;;;7.50;5.25;;;;;21.83;74.18;100648.69;6214286;22;45367;-65
2023/09/17 05:28:36;;;;;;;;;8.00;8.00;;;;;22.04;74.19;100679.66;6215791;22;45280;-65
2023/09/17 05:31:01;;;;;;;;;6.25;6.25;;;;;21.75;74.40;100634.84;6215963;22;45458;-65
2023/09/17 05:33:27;;;;;;;;;7.00;7.00;;;;;21.82;74.28;100644.22;6216173;22;45264;-65
2023/09/17 05:35:56;;;;;;;;;5.25;5.25;;;;;21.98;74.42;100683.72;6214445;22;45409;-65
2023/09/17 05:38:26;;;;;;;;;6.50;6.50;;;;;21.73;74.37;100622.38;6216099;22;45382;-65
2023/09/17 05:40:52;;;;;;;;;6.00;6.00;;;;;22.00;74.65;100663.59;6215942;22;46074;-65
2023/09/17 05:43:17;;;;;;;;;7.00;5.75;;;;;22.10;74.28;100684.56;6215986;22;45358;-65
2023/09/17 05:45:43;;;;;;;;;6.00;6.00;;;;;21.98;74.80;100665.56;6214476;22;45359;-65
2023/09/17 05:48:08;;;;;;;;;6.50;6.50;;;;;21.71;74.36;100619.78;6214267;22;45450;-65
2023/09/17 05:50:33;;;;;;;;;5.50;5.50;;;;;21.80;74.50;100635.34;6216443;22;45300;-65
2023/09/17 05:52:59;;;;;;;;;4.75;4.75;;;;;21.89;74.71;100660.03;6215612;22;45164;-65
2023/09/17 05:55:24;;;;;;;;;7.00;6.75;;;;;21.88;74.50;100663.72;6215395;22;45434;-65
2023/09/17 05:57:50;;;;;;;;;6.25;5.50;;;;;21.84;74.35;100644.94;6215971;22;45201;-65
2023/09/17 06:00:16;;;;;;;;;5.50;5.50;;;;;21.91;74.34;100669.78;6216206;22;46083;-65
2023/09/17 06:02:42;;;;;;;;;9.75;7.00;;;;;21.64;74.81;100618.56;6216516;22;45367;-65
2023/09/17 06:05:10;;;;;;;;;6.00;5.00;;;;;21.88;74.51;100656.44;6214330;22;45389;-65
2023/09/17 06:07:35;;;;;;;;;8.50;5.75;;;;;21.71;74.92;100633.34;6216182;22;45409;-65
2023/09/17 06:10:01;;;;;;;;;6.75;6.00;;;;;22.01;74.78;100672.59;6216144;22;45958;-65
2023/09/17 06:12:26;;;;;;;;;5.75;5.75;;;;;21.74;74.76;100629.53;6216103;22;45670;-65
2023/09/17 06:14:52;;;;;;;;;4.25;4.25;;;;;21.61;74.23;100606.06;6216108;22;45787;-65
2023/09/17 06:17:17;;;;;;;;;7.25;5.75;;;;;21.65;74.46;100623.88;6214198;22;45491;-65
2023/09/17 06:19:43;;;;;;;;;7.00;6.00;;;;;21.83;74.81;100651.41;6216241;22;45927;-65
2023/09/17 06:22:09;;;;;;;;;5.00;4.75;;;;;21.79;74.66;100646.31;6216174;22;45350;-65
2023/09/17 06:24:34;;;;;;;;;6.50;5.75;;;;;21.74;74.67;100643.97;6212491;22;45270;-65
2023/09/17 06:27:00;;;;;;;;;6.50;5.00;;;;;21.68;74.66;100641.75;6216078;22;45201;-65
2023/09/17 06:29:25;;;;;;;;;6.75;5.00;;;;;21.74;74.98;100664.84;6215659;22;46315;-65
2023/09/17 06:42:55;;;;;;;;;;;;;;;;;;;;;
2023/09/17 06:52:27;;;;;;;;;;;;;;;;;;;;;
2023/09/17 06:55:54;;;;;;;;;4.25;4.25;;;;;21.66;75.16;100670.88;6062723;23;75431;-70
2023/09/17 06:58:55;;;;;;;;;;;;;;;;;;;;;
2023/09/17 07:05:33;;;;;;;;;;;;;;;;;;;;;
2023/09/17 07:08:55;;;;;;;;;;;;;;;;;;;;;
2023/09/17 07:12:04;;;;;;;;;7.00;6.00;;;;;21.84;75.22;100699.28;6035450;23;71793;-70
2023/09/17 07:25:11;;;;;;;;;8.75;6.75;;;;;21.61;75.51;100632.38;6151449;22;46549;-70
2023/09/17 08:53:09;;;;;;;;;8.00;7.00;;;;;22.37;75.96;100700.53;6212919;22;45670;-71
2023/09/17 08:55:35;;;;;;;;;6.00;5.25;;;;;21.99;75.47;100636.53;6187851;23;45441;-81
2023/09/17 08:58:17;;;;;;;;;6.00;4.50;;;;;22.34;75.47;100692.63;6188929;23;45184;-81
2023/09/17 09:00:49;;;;;;;;;7.00;7.00;;;;;22.48;76.08;100705.91;6188361;23;45201;-81
2023/09/17 09:03:17;;;;;;;;;5.00;5.00;;;;;22.51;75.99;100707.53;6191559;22;47057;-81
2023/09/17 09:05:44;;;;;;;;;6.00;6.00;;;;;22.42;75.64;100689.22;6191633;22;45816;-81
2023/09/17 09:08:12;;;;;;;;;7.25;4.00;;;;;22.49;75.48;100687.75;6220192;22;45107;-81
2023/09/17 09:10:38;;;;;;;;;5.25;5.00;;;;;22.49;75.69;100682.31;6218956;22;45180;-82
2023/09/17 09:13:04;;;;;;;;;6.00;6.00;;;;;22.49;76.13;100683.16;6217474;22;45465;-81
2023/09/17 09:15:30;;;;;;;;;6.00;6.00;;;;;22.52;75.41;100676.59;6218630;22;45775;-81
2023/09/17 09:17:55;;;;;;;;;4.00;4.00;;;;;22.64;74.92;100704.66;6216270;22;45218;-80
2023/09/17 09:20:21;;;;;;;;;7.50;5.00;;;;;22.66;75.14;100684.47;6212253;22;45397;-81
2023/09/17 09:22:47;;;;;;;;;7.75;6.50;;;;;22.72;75.08;100692.13;6217298;22;45416;-85
2023/09/17 09:25:14;;;;;;;;;6.25;5.25;;;;;22.67;75.06;100683.50;6189582;22;45572;-86
2023/09/17 09:27:39;;;;;;;;;8.00;8.00;;;;;22.74;74.63;100689.28;6190500;22;45223;-86
2023/09/17 09:30:08;;;;;;;;;7.75;6.00;;;;;22.66;74.25;100670.00;6188263;22;45280;-86
2023/09/17 09:32:33;;;;;;;;;6.00;6.00;;;;;22.74;74.56;100676.53;6215037;22;45765;-86
2023/09/17 09:35:01;;;;;;;;;7.25;7.00;;;;;22.77;75.31;100678.13;6214540;22;45553;-86
2023/09/17 09:37:26;;;;;;;;;7.50;5.00;;;;;22.71;75.09;100663.19;6191426;22;45247;-86
2023/09/17 09:39:52;;;;;;;;;5.00;5.00;;;;;22.89;74.88;100678.94;6191265;22;45381;-86
2023/09/17 09:42:17;;;;;;;;;7.25;6.75;;;;;22.84;75.25;100673.88;6190325;22;47779;-86
2023/09/17 09:44:43;;;;;;;;;7.00;7.00;;;;;22.98;75.14;100680.00;6218572;22;45099;-85
2023/09/17 09:47:09;;;;;;;;;7.50;6.00;;;;;22.89;74.66;100649.00;6192249;22;45216;-85
2023/09/17 09:49:42;;;;;;;;;5.25;4.75;;;;;22.98;74.89;100650.06;6191431;22;45836;-85
2023/09/17 09:52:10;;;;;;;;;10.00;8.75;;;;;23.11;74.42;100673.41;6190712;22;48320;-85
2023/09/17 09:54:35;;;;;;;;;11.00;8.25;;;;;23.05;74.41;100654.84;6218990;22;45285;-86
2023/09/17 09:57:05;;;;;;;;;8.00;6.50;;;;;23.03;74.35;100637.78;6190826;22;45169;-86
2023/09/17 09:59:31;;;;;;;;;8.00;7.50;;;;;23.08;74.36;100638.28;6218028;22;45390;-83
2023/09/17 10:01:57;;;;;;;;;10.75;9.50;;;;;23.21;74.99;100639.94;6216487;22;45658;-87
2023/09/17 10:04:23;;;;;;;;;8.50;6.25;;;;;23.22;73.97;100619.88;6191537;22;45207;-87
2023/09/17 10:06:48;;;;;;;;;7.75;6.00;;;;;23.18;74.25;100594.78;6191150;22;45618;-86
2023/09/17 10:09:14;;;;;;;;;8.00;7.00;;;;;23.25;73.95;100592.38;6219109;22;45395;-85
2023/09/17 10:11:40;;;;;;;;;6.75;6.75;;;;;23.40;73.63;100626.41;6190592;22;47613;-85
2023/09/17 10:14:06;;;;;;;;;9.75;9.75;;;;;23.49;73.31;100633.78;6192144;22;45206;-88
2023/09/17 10:16:33;;;;;;;;;9.00;8.00;;;;;23.43;73.11;100617.13;6191899;22;45440;-84
2023/09/17 10:19:00;;;;;;;;;9.50;8.50;;;;;23.50;73.26;100623.72;6191617;22;45401;-83
2023/09/17 10:21:27;;;;;;;;;5.75;5.75;;;;;23.56;72.76;100630.53;6189792;22;47478;-83
2023/09/17 10:23:57;;;;;;;;;8.50;8.00;;;;;23.55;73.22;100623.34;6218647;22;45408;-83
2023/09/17 10:26:24;;;;;;;;;12.50;9.25;;;;;23.62;72.84;100628.09;6190849;22;45276;-83
2023/09/17 10:28:54;;;;;;;;;10.00;10.00;;;;;23.64;72.91;100619.81;6191608;22;45297;-83
2023/09/17 10:31:20;;;;;;;;;9.75;7.25;;;;;23.64;73.38;100608.91;6190798;22;47073;-83
2023/09/17 10:33:47;;;;;;;;;10.00;9.00;;;;;23.68;72.88;100603.00;6191348;22;45361;-83
2023/09/17 10:36:14;;;;;;;;;12.25;11.00;;;;;23.67;72.81;100594.97;6191711;22;45309;-83
2023/09/17 10:38:42;;;;;;;;;11.00;9.75;;;;;23.74;72.39;100603.47;6216967;22;45338;-83
2023/09/17 10:41:08;;;;;;;;;5.25;5.25;;;;;23.77;72.86;100608.63;6189608;22;47085;-83
2023/09/17 10:43:38;;;;;;;;;13.00;11.50;;;;;23.72;72.67;100594.56;6217799;22;45270;-83
2023/09/17 10:46:07;;;;;;;;;11.75;10.25;;;;;23.82;72.76;100595.50;6219582;22;45243;-83
2023/09/17 10:48:34;;;;;;;;;10.25;9.50;;;;;23.89;72.82;100588.50;6190878;22;45239;-83
2023/09/17 10:51:00;;;;;;;;;11.00;8.50;;;;;23.86;72.14;100580.59;6216522;22;45297;-83
2023/09/17 10:53:27;;;;;;;;;10.00;9.00;;;;;23.92;72.25;100587.34;6216642;22;45434;-83
2023/09/17 10:56:15;;;;;;;;;8.00;8.00;;;;;23.98;72.66;100586.78;6218701;22;45238;-83
2023/09/17 10:58:45;;;;;;;;;5.50;5.50;;;;;23.99;72.17;100583.94;6215593;22;45329;-83
2023/09/17 11:01:15;;;;;;;;;6.50;5.50;;;;;24.04;72.14;100588.97;6214619;22;45676;-83
2023/09/17 11:03:51;;;;;;;;;6.25;6.25;;;;;24.07;72.03;100585.94;6219501;22;45714;-83
2023/09/17 11:06:23;;;;;;;;;7.75;7.75;;;;;24.11;71.95;100590.13;6192952;22;45193;-83
2023/09/17 11:08:51;;;;;;;;;7.75;6.75;;;;;24.08;72.49;100584.94;6218273;22;45308;-84
2023/09/17 11:11:17;;;;;;;;;8.25;8.25;;;;;24.01;72.12;100568.28;6217187;22;45268;-84
2023/09/17 11:13:43;;;;;;;;;7.00;7.00;;;;;24.23;71.88;100593.56;6190693;22;45424;-84
2023/09/17 11:16:09;;;;;;;;;7.00;7.00;;;;;24.21;71.78;100582.81;6218700;22;45191;-83
2023/09/17 11:18:34;;;;;;;;;6.00;6.00;;;;;24.33;72.01;100599.03;6219798;22;45235;-83
2023/09/17 11:21:06;;;;;;;;;9.75;9.75;;;;;24.20;71.39;100569.31;6218415;22;46032;-84
2023/09/17 11:23:53;;;;;;;;;9.00;8.00;;;;;24.44;71.43;100598.91;6216356;22;45400;-84
2023/09/17 11:26:20;;;;;;;;;7.75;7.75;;;;;24.39;70.78;100590.25;6218000;22;45333;-84
2023/09/17 11:28:55;;;;;;;;;8.00;8.00;;;;;24.50;71.01;100602.91;6218600;22;45532;-84
2023/09/17 11:31:21;;;;;;;;;10.25;8.50;;;;;24.52;71.93;100609.94;6189468;22;46986;-84
2023/09/17 11:33:48;;;;;;;;;7.00;7.00;;;;;24.57;71.27;100617.72;6191090;22;45783;-84
2023/09/17 11:36:14;;;;;;;;;11.00;10.00;;;;;24.52;71.89;100611.81;6190170;22;45339;-84
2023/09/17 11:38:45;;;;;;;;;8.00;8.00;;;;;24.66;71.68;100626.91;6218216;22;44813;-84
2023/09/17 11:41:14;;;;;;;;;10.25;8.50;;;;;24.69;71.34;100630.25;6215548;22;46006;-84
2023/09/17 11:43:45;;;;;;;;;10.25;9.75;;;;;24.73;71.40;100628.94;6190118;22;45275;-84
2023/09/17 11:46:12;;;;;;;;;9.50;7.75;;;;;24.77;71.82;100630.38;6191491;22;45157;-84
2023/09/17 11:48:38;;;;;;;;;9.00;9.00;;;;;24.70;70.82;100622.91;6190824;22;45875;-84
2023/09/17 11:51:34;;;;;;;;;4.00;4.00;;;;;24.82;71.31;100629.94;6190756;22;46196;-84
2023/09/17 11:54:02;;;;;;;;;8.50;8.00;;;;;24.85;71.42;100626.91;6186376;22;45436;-84
2023/09/17 11:56:38;;;;;;;;;8.00;8.00;;;;;24.80;70.53;100614.72;6217742;22;45266;-84
2023/09/17 11:59:08;;;;;;;;;7.00;5.75;;;;;24.90;71.53;100632.78;6190129;22;45381;-84
2023/09/17 12:01:42;;;;;;;;;7.00;7.00;;;;;24.94;71.41;100627.91;6216182;22;46375;-84
2023/09/17 12:04:09;;;;;;;;;7.00;7.00;;;;;24.75;71.64;100587.84;6190459;22;45893;-84
2023/09/17 12:06:40;;;;;;;;;7.75;7.75;;;;;24.89;71.14;100602.91;6190508;22;45346;-84
2023/09/17 12:09:15;;;;;;;;;7.00;7.00;;;;;25.01;70.75;100617.25;6217752;22;45296;-84
2023/09/17 12:11:42;;;;;;;;;8.50;8.00;;;;;24.93;70.73;100591.56;6214544;22;47224;-84
2023/09/17 12:14:08;;;;;;;;;9.00;7.00;;;;;25.01;69.89;100593.56;6192392;22;46272;-84
2023/09/17 12:16:34;;;;;;;;;5.50;5.25;;;;;25.11;69.83;100604.47;6191885;22;45321;-84
2023/09/17 12:18:59;;;;;;;;;6.75;6.75;;;;;25.06;70.59;100585.78;6218705;22;45994;-84
2023/09/17 12:21:25;;;;;;;;;7.25;7.25;;;;;25.07;70.09;100589.38;6215761;22;45303;-84
2023/09/17 12:26:37;;;;;;;;;7.00;6.00;;;;;25.14;69.76;100580.44;6219101;22;45318;-84
2023/09/17 12:29:10;;;;;;;;;8.00;8.00;;;;;25.05;70.18;100553.16;6191858;22;45411;-84
2023/09/17 12:31:36;;;;;;;;;8.00;7.50;;;;;25.25;70.16;100586.75;6218723;22;46215;-84
2023/09/17 12:34:03;;;;;;;;;6.50;5.25;;;;;25.23;69.64;100572.38;6219361;22;45379;-84
2023/09/17 12:36:28;;;;;;;;;6.75;6.75;;;;;25.19;69.35;100562.75;6191958;22;45283;-84
2023/09/17 12:38:53;;;;;;;;;7.25;7.25;;;;;25.27;69.92;100557.44;6219944;22;45192;-83
2023/09/17 12:41:19;;;;;;;;;9.00;7.25;;;;;25.24;69.58;100547.66;6216696;22;45331;-83
2023/09/17 12:43:46;;;;;;;;;5.50;5.50;;;;;25.35;69.11;100552.06;6191870;22;45166;-84
2023/09/17 12:46:12;;;;;;;;;8.00;6.75;;;;;25.42;68.99;100557.78;6218190;22;45408;-83
2023/09/17 12:48:37;;;;;;;;;7.00;7.00;;;;;25.45;68.83;100547.41;6218151;22;45287;-84
2023/09/17 12:51:03;;;;;;;;;5.25;5.25;;;;;25.41;69.21;100543.28;6218143;22;45893;-83
2023/09/17 12:53:29;;;;;;;;;5.00;5.00;;;;;25.39;68.86;100547.16;6218435;22;45198;-84
2023/09/17 12:55:58;;;;;;;;;8.25;8.25;;;;;25.55;68.84;100560.19;6216965;22;45390;-84
2023/09/17 12:58:23;;;;;;;;;6.00;6.00;;;;;25.53;68.65;100552.16;6191734;22;45410;-84
2023/09/17 13:00:48;;;;;;;;;7.00;6.00;;;;;25.50;69.48;100538.78;6191490;22;48283;-84
2023/09/17 13:03:18;;;;;;;;;4.25;4.25;;;;;25.62;68.31;100559.41;6215573;22;55137;-84
2023/09/17 13:05:44;;;;;;;;;9.00;7.00;;;;;25.49;68.27;100529.72;6219123;22;45438;-84
2023/09/17 13:08:09;;;;;;;;;6.25;6.25;;;;;25.65;68.62;100539.97;6190735;22;45373;-84
2023/09/17 13:10:37;;;;;;;;;5.00;5.00;;;;;25.51;68.52;100508.56;6216816;22;45555;-83
2023/09/17 13:13:06;;;;;;;;;7.00;5.50;;;;;25.74;67.94;100542.81;6218811;22;45222;-83
2023/09/17 13:15:32;;;;;;;;;7.50;7.50;;;;;25.64;68.03;100519.16;6218386;22;45259;-84
2023/09/17 13:18:00;;;;;;;;;6.75;6.75;;;;;25.68;67.78;100515.06;6220032;22;45249;-84
2023/09/17 13:20:27;;;;;;;;;7.00;7.00;;;;;25.70;68.25;100512.19;6191664;22;48355;-84
2023/09/17 13:22:52;;;;;;;;;1.50;1.50;;;;;25.75;68.31;100514.47;6188851;22;45331;-84
2023/09/17 13:25:18;;;;;;;;;6.25;5.50;;;;;25.65;68.00;100492.66;6218640;22;45272;-84
2023/09/17 13:27:44;;;;;;;;;7.50;7.50;;;;;25.79;67.59;100514.00;6217977;22;45272;-83
2023/09/17 13:30:10;;;;;;;;;7.25;6.50;;;;;25.87;67.65;100518.69;6192203;22;47205;-83
2023/09/17 13:32:36;;;;;;;;;9.00;8.00;;;;;25.81;68.01;100508.38;6190282;22;45238;-84
2023/09/17 13:35:07;;;;;;;;;9.25;9.00;;;;;25.91;68.22;100531.06;6191221;22;45266;-83
2023/09/17 13:37:39;;;;;;;;;8.25;6.50;;;;;25.78;67.62;100495.88;6218355;22;45192;-83